createdAt,value
2017-02-22T00:06:46.493Z,25
2017-02-22T00:16:46.751Z,22
2017-02-22T00:26:46.531Z,21
2017-02-22T00:36:46.496Z,23
2017-02-22T00:46:46.480Z,21
2017-02-22T00:56:46.543Z,23
2017-02-22T01:06:46.459Z,21
2017-02-22T01:16:46.436Z,24
2017-02-22T01:26:46.494Z,27
2017-02-22T01:36:46.474Z,21
2017-02-22T01:46:46.600Z,22
2017-02-22T01:56:46.496Z,21
2017-02-22T02:06:46.531Z,22
2017-02-22T02:16:46.458Z,20
2017-02-22T02:26:46.866Z,22
2017-02-22T02:36:46.465Z,16
2017-02-22T02:46:46.453Z,16
2017-02-22T02:56:46.508Z,14
2017-02-22T03:06:46.490Z,14
2017-02-22T03:16:46.416Z,11
2017-02-22T03:26:46.489Z,14
2017-02-22T03:36:46.456Z,12
2017-02-22T03:46:46.525Z,10
2017-02-22T03:56:46.474Z,10
2017-02-22T04:06:46.418Z,9
2017-02-22T04:16:46.505Z,9
2017-02-22T04:26:46.518Z,9
2017-02-22T04:36:46.491Z,9
2017-02-22T04:46:46.526Z,8
2017-02-22T04:56:46.442Z,7
2017-02-22T05:06:46.547Z,6
2017-02-22T05:16:46.495Z,7
2017-02-22T05:26:46.576Z,7
2017-02-22T05:36:46.525Z,7
2017-02-22T05:46:46.448Z,7
2017-02-22T05:56:46.390Z,7
2017-02-22T06:06:46.416Z,5
2017-02-22T06:16:46.369Z,6
2017-02-22T06:26:46.394Z,8
2017-02-22T06:36:46.384Z,6
2017-02-22T06:46:46.392Z,4
2017-02-22T06:56:46.390Z,4
2017-02-22T07:06:46.451Z,7
2017-02-22T07:16:46.382Z,6
2017-02-22T07:26:46.409Z,7
2017-02-22T07:36:46.397Z,6
2017-02-22T07:46:46.420Z,6
2017-02-22T07:56:46.375Z,4
2017-02-22T08:06:46.397Z,6
2017-02-22T08:16:46.394Z,7
2017-02-22T08:26:46.444Z,4
2017-02-22T08:36:46.382Z,6
2017-02-22T08:46:46.358Z,4
2017-02-22T08:56:46.391Z,5
2017-02-22T09:06:46.377Z,5
2017-02-22T09:16:46.407Z,5
2017-02-22T09:26:46.360Z,7
2017-02-22T09:36:46.409Z,7
2017-02-22T09:46:46.384Z,6
2017-02-22T09:56:46.384Z,6
2017-02-22T10:06:46.422Z,6
2017-02-22T10:16:46.437Z,7
2017-02-22T10:26:46.391Z,5
2017-02-22T10:36:46.393Z,6
2017-02-22T10:46:46.358Z,4
2017-02-22T10:56:46.440Z,6
2017-02-22T11:06:46.432Z,4
2017-02-22T11:16:46.426Z,6
2017-02-22T11:26:46.415Z,10
2017-02-22T11:36:46.402Z,7
2017-02-22T11:46:46.368Z,9
2017-02-22T11:56:46.449Z,10
2017-02-22T12:06:46.357Z,12
2017-02-22T12:16:46.346Z,11
2017-02-22T12:26:46.380Z,11
2017-02-22T12:36:46.421Z,14
2017-02-22T12:46:46.369Z,11
2017-02-22T12:56:46.428Z,10
2017-02-22T13:06:46.384Z,13
2017-02-22T13:16:46.386Z,10
2017-02-22T13:26:46.365Z,10
2017-02-22T13:36:46.424Z,10
2017-02-22T13:46:46.338Z,15
2017-02-22T13:56:46.381Z,10
2017-02-22T14:06:46.339Z,12
2017-02-22T14:16:46.386Z,13
2017-02-22T14:26:46.420Z,13
2017-02-22T14:36:46.378Z,2
2017-02-22T14:46:46.430Z,2
2017-02-22T14:56:46.343Z,3
2017-02-22T15:06:46.452Z,2
2017-02-22T15:16:46.716Z,2
2017-02-22T15:26:46.442Z,3
2017-02-22T15:36:46.408Z,3
2017-02-22T15:46:46.471Z,2
2017-02-22T15:56:46.409Z,2
2017-02-22T16:06:46.487Z,2
2017-02-22T16:16:46.439Z,3
2017-02-22T16:26:46.342Z,5
2017-02-22T16:36:46.411Z,3
2017-02-22T16:46:46.382Z,5
2017-02-22T16:56:46.366Z,4
2017-02-22T17:06:46.301Z,4
2017-02-22T17:16:46.357Z,4
2017-02-22T17:26:46.345Z,3
2017-02-22T17:36:46.365Z,3
2017-02-22T17:46:46.406Z,5
2017-02-22T17:56:46.434Z,4
2017-02-22T18:06:46.381Z,5
2017-02-22T18:16:58.103Z,5
2017-02-22T18:27:11.172Z,7
2017-02-22T18:36:46.372Z,11
2017-02-22T18:46:50.649Z,12
2017-02-22T18:57:10.601Z,14
2017-02-22T19:07:15.425Z,13
2017-02-22T19:16:51.200Z,12
2017-02-22T19:27:03.050Z,10
2017-02-22T19:47:00.437Z,9
2017-02-22T19:57:10.121Z,9
2017-02-22T20:07:00.432Z,9
2017-02-22T20:16:58.484Z,11
2017-02-22T20:26:54.616Z,11
2017-02-22T20:37:03.349Z,11
2017-02-22T20:57:02.653Z,8
2017-02-22T21:07:08.762Z,10
2017-02-22T21:16:59.793Z,7
2017-02-22T21:27:04.277Z,10
2017-02-22T21:36:46.948Z,7
2017-02-22T21:46:46.438Z,8
2017-02-22T21:57:36.617Z,7
2017-02-22T22:16:55.261Z,8
2017-02-22T22:26:52.536Z,6
2017-02-22T22:36:46.270Z,7
2017-02-22T22:46:46.381Z,6
2017-02-22T22:56:46.323Z,11
2017-02-22T23:06:46.421Z,6
2017-02-22T23:16:46.506Z,6
2017-02-22T23:26:46.405Z,8
2017-02-22T23:36:46.311Z,6
2017-02-22T23:46:46.312Z,7
2017-02-22T23:56:46.400Z,7
